createdAt,value
2023-05-04T00:00:19.744Z,507.00
2023-05-04T00:01:19.798Z,508.00
2023-05-04T00:02:19.860Z,506.00
2023-05-04T00:03:20.017Z,507.00
2023-05-04T00:04:19.981Z,506.00
2023-05-04T00:05:20.030Z,508.00
2023-05-04T00:06:20.100Z,507.00
2023-05-04T00:07:20.097Z,504.00
2023-05-04T00:08:20.168Z,506.00
2023-05-04T00:09:20.195Z,505.00
2023-05-04T00:10:20.234Z,510.00
2023-05-04T00:11:20.308Z,502.00
2023-05-04T00:12:20.372Z,502.00
2023-05-04T00:13:20.412Z,508.00
2023-05-04T00:14:20.398Z,503.00
2023-05-04T00:15:20.442Z,507.00
2023-05-04T00:16:20.508Z,502.00
2023-05-04T00:17:20.557Z,503.00
2023-05-04T00:18:20.538Z,503.00
2023-05-04T00:19:20.569Z,500.00
2023-05-04T00:20:20.620Z,503.00
2023-05-04T00:21:20.668Z,505.00
2023-05-04T00:22:20.715Z,503.00
2023-05-04T00:23:20.742Z,506.00
2023-05-04T00:24:20.794Z,508.00
2023-05-04T00:25:20.835Z,504.00
2023-05-04T00:26:21.201Z,506.00
2023-05-04T00:27:20.915Z,502.00
2023-05-04T00:28:20.990Z,508.00
2023-05-04T00:29:21.029Z,502.00
2023-05-04T00:30:21.037Z,506.00
2023-05-04T00:31:21.144Z,505.00
2023-05-04T00:32:21.172Z,506.00
2023-05-04T00:33:21.147Z,505.00
2023-05-04T00:34:21.251Z,506.00
2023-05-04T00:35:21.242Z,505.00
2023-05-04T00:36:21.734Z,508.00
2023-05-04T00:37:21.296Z,503.00
2023-05-04T00:38:21.314Z,507.00
2023-05-04T00:39:21.356Z,505.00
2023-05-04T00:40:21.374Z,501.00
2023-05-04T00:41:21.402Z,501.00
2023-05-04T00:42:21.401Z,500.00
2023-05-04T00:43:21.454Z,503.00
2023-05-04T00:44:21.475Z,504.00
2023-05-04T00:45:21.513Z,504.00
2023-05-04T00:46:21.568Z,505.00
2023-05-04T00:47:21.579Z,504.00
2023-05-04T00:48:21.571Z,506.00
2023-05-04T00:49:21.805Z,507.00
2023-05-04T00:50:21.629Z,504.00
2023-05-04T00:51:21.627Z,507.00
2023-05-04T00:52:21.631Z,506.00
2023-05-04T00:53:21.619Z,505.00
2023-05-04T00:54:21.646Z,505.00
2023-05-04T00:55:21.701Z,504.00
2023-05-04T00:56:21.734Z,507.00
2023-05-04T00:57:21.713Z,500.00
2023-05-04T00:58:21.747Z,505.00
2023-05-04T00:59:21.759Z,503.00
2023-05-04T01:00:21.772Z,504.00
2023-05-04T01:01:21.773Z,501.00
2023-05-04T01:02:21.823Z,508.00
2023-05-04T01:03:21.882Z,506.00
2023-05-04T01:04:21.762Z,503.00
2023-05-04T01:05:21.774Z,506.00
2023-05-04T01:06:21.852Z,504.00
2023-05-04T01:07:21.777Z,507.00
2023-05-04T01:08:21.790Z,506.00
2023-05-04T01:09:21.777Z,501.00
2023-05-04T01:10:21.804Z,502.00
2023-05-04T01:11:21.832Z,503.00
2023-05-04T01:12:21.847Z,506.00
2023-05-04T01:13:21.851Z,501.00
2023-05-04T01:14:21.877Z,504.00
2023-05-04T01:15:21.852Z,503.00
2023-05-04T01:16:22.264Z,500.00
2023-05-04T01:17:21.921Z,506.00
2023-05-04T01:18:21.876Z,507.00
2023-05-04T01:19:21.883Z,503.00
2023-05-04T01:20:21.914Z,505.00
2023-05-04T01:21:21.927Z,503.00
2023-05-04T01:22:21.941Z,509.00
2023-05-04T01:23:21.996Z,506.00
2023-05-04T01:24:21.959Z,510.00
2023-05-04T01:25:21.972Z,504.00
2023-05-04T01:26:21.992Z,504.00
2023-05-04T01:27:21.965Z,507.00
2023-05-04T01:28:22.022Z,508.00
2023-05-04T01:29:22.029Z,500.00
2023-05-04T01:30:22.037Z,504.00
2023-05-04T01:31:21.996Z,502.00
2023-05-04T01:32:22.207Z,504.00
2023-05-04T01:33:21.994Z,508.00
2023-05-04T01:34:21.992Z,506.00
2023-05-04T01:35:22.007Z,507.00
2023-05-04T01:36:22.016Z,506.00
2023-05-04T01:37:21.997Z,506.00
2023-05-04T01:38:22.006Z,503.00
2023-05-04T01:39:22.023Z,505.00
2023-05-04T01:40:22.051Z,505.00
2023-05-04T01:41:22.051Z,502.00
2023-05-04T01:42:22.079Z,509.00
2023-05-04T01:43:22.047Z,503.00
2023-05-04T01:44:22.040Z,503.00
2023-05-04T01:45:22.036Z,505.00
2023-05-04T01:46:22.143Z,504.00
2023-05-04T01:47:22.142Z,503.00
2023-05-04T01:48:22.035Z,502.00
2023-05-04T01:49:22.018Z,501.00
2023-05-04T01:50:22.026Z,503.00
2023-05-04T01:51:22.065Z,505.00
2023-05-04T01:52:22.077Z,505.00
2023-05-04T01:53:22.094Z,510.00
2023-05-04T01:54:22.044Z,502.00
2023-05-04T01:55:22.034Z,508.00
2023-05-04T01:56:22.050Z,504.00
2023-05-04T01:57:22.053Z,501.00
2023-05-04T01:58:22.050Z,502.00
2023-05-04T01:59:22.021Z,506.00
2023-05-04T02:00:22.102Z,506.00
2023-05-04T02:01:22.056Z,509.00
2023-05-04T02:02:22.017Z,501.00
2023-05-04T02:03:22.061Z,501.00
2023-05-04T02:04:21.999Z,505.00
2023-05-04T02:05:22.010Z,508.00
2023-05-04T02:06:22.038Z,506.00
2023-05-04T02:07:22.011Z,507.00
2023-05-04T02:08:22.020Z,508.00
2023-05-04T02:09:22.003Z,508.00
2023-05-04T02:10:22.008Z,506.00
2023-05-04T02:11:21.987Z,501.00
2023-05-04T02:12:21.988Z,505.00
2023-05-04T02:13:21.980Z,501.00
2023-05-04T02:14:22.013Z,507.00
2023-05-04T02:15:21.989Z,500.00
2023-05-04T02:16:22.026Z,505.00
2023-05-04T02:17:21.981Z,508.00
2023-05-04T02:18:21.997Z,510.00
2023-05-04T02:19:22.009Z,505.00
2023-05-04T02:20:21.959Z,502.00
2023-05-04T02:21:21.993Z,501.00
2023-05-04T02:22:21.948Z,504.00
2023-05-04T02:23:21.988Z,501.00
2023-05-04T02:24:21.998Z,505.00
2023-05-04T02:25:21.926Z,506.00
2023-05-04T02:26:21.962Z,506.00
2023-05-04T02:27:22.271Z,506.00
2023-05-04T02:28:21.928Z,501.00
2023-05-04T02:29:21.935Z,504.00
2023-05-04T02:30:21.915Z,504.00
2023-05-04T02:31:21.970Z,508.00
2023-05-04T02:32:21.956Z,504.00
2023-05-04T02:33:21.948Z,502.00
2023-05-04T02:34:21.915Z,506.00
2023-05-04T02:35:21.905Z,502.00
2023-05-04T02:36:21.922Z,503.00
2023-05-04T02:37:21.924Z,506.00
2023-05-04T02:38:21.939Z,503.00
2023-05-04T02:39:21.918Z,502.00
2023-05-04T02:40:21.930Z,503.00
2023-05-04T02:41:21.912Z,505.00
2023-05-04T02:42:21.913Z,507.00
2023-05-04T02:43:21.933Z,503.00
2023-05-04T02:44:21.944Z,504.00
2023-05-04T02:45:21.905Z,501.00
2023-05-04T02:46:22.114Z,500.00
2023-05-04T02:47:21.942Z,507.00
2023-05-04T02:48:21.923Z,506.00
2023-05-04T02:49:21.894Z,507.00
2023-05-04T02:50:21.904Z,507.00
2023-05-04T02:51:21.931Z,508.00
2023-05-04T02:52:21.925Z,510.00
2023-05-04T02:53:21.911Z,500.00
2023-05-04T02:54:21.903Z,506.00
2023-05-04T02:55:21.911Z,505.00
2023-05-04T02:56:21.937Z,505.00
2023-05-04T02:57:21.882Z,508.00
2023-05-04T02:58:21.870Z,507.00
2023-05-04T02:59:21.865Z,507.00
2023-05-04T03:00:21.865Z,505.00
2023-05-04T03:01:21.887Z,504.00
2023-05-04T03:02:21.886Z,502.00
2023-05-04T03:03:21.835Z,506.00
2023-05-04T03:04:21.915Z,507.00
2023-05-04T03:05:21.875Z,507.00
2023-05-04T03:06:21.894Z,511.00
2023-05-04T03:07:21.898Z,505.00
2023-05-04T03:08:21.856Z,511.00
2023-05-04T03:09:21.844Z,506.00
2023-05-04T03:10:21.846Z,508.00
2023-05-04T03:11:21.824Z,512.00
2023-05-04T03:12:21.863Z,507.00
2023-05-04T03:13:21.840Z,507.00
2023-05-04T03:14:21.837Z,505.00
2023-05-04T03:15:21.853Z,508.00
2023-05-04T03:16:21.835Z,504.00
2023-05-04T03:17:21.836Z,512.00
2023-05-04T03:18:21.839Z,507.00
2023-05-04T03:19:21.827Z,508.00
2023-05-04T03:20:21.877Z,501.00
2023-05-04T03:21:21.842Z,510.00
2023-05-04T03:22:22.278Z,508.00
2023-05-04T03:23:21.855Z,509.00
2023-05-04T03:24:21.854Z,509.00
2023-05-04T03:25:21.870Z,506.00
2023-05-04T03:26:21.844Z,507.00
2023-05-04T03:27:22.283Z,506.00
2023-05-04T03:28:21.883Z,502.00
2023-05-04T03:29:21.879Z,507.00
2023-05-04T03:30:21.904Z,502.00
2023-05-04T03:31:21.940Z,508.00
2023-05-04T03:32:22.289Z,500.00
2023-05-04T03:33:21.929Z,506.00
2023-05-04T03:34:21.905Z,508.00
2023-05-04T03:35:25.026Z,503.00
2023-05-04T03:36:21.895Z,508.00
2023-05-04T03:37:22.314Z,503.00
2023-05-04T03:38:21.883Z,506.00
2023-05-04T03:39:21.838Z,507.00
2023-05-04T03:40:21.849Z,505.00
2023-05-04T03:41:21.855Z,507.00
2023-05-04T03:42:21.881Z,504.00
2023-05-04T03:43:21.855Z,508.00
2023-05-04T03:44:21.816Z,502.00
2023-05-04T03:45:21.809Z,504.00
2023-05-04T03:46:21.920Z,504.00
2023-05-04T03:47:21.817Z,508.00
2023-05-04T03:48:21.818Z,503.00
2023-05-04T03:49:21.833Z,504.00
2023-05-04T03:50:21.813Z,500.00
2023-05-04T03:51:21.820Z,504.00
2023-05-04T03:52:22.312Z,501.00
2023-05-04T03:53:21.878Z,509.00
2023-05-04T03:54:21.792Z,508.00
2023-05-04T03:55:21.761Z,500.00
2023-05-04T03:56:21.784Z,504.00
2023-05-04T03:57:21.762Z,503.00
2023-05-04T03:58:21.748Z,503.00
2023-05-04T03:59:21.702Z,506.00
2023-05-04T04:00:21.765Z,509.00
2023-05-04T04:01:21.707Z,504.00
2023-05-04T04:02:21.781Z,507.00
2023-05-04T04:03:22.102Z,503.00
2023-05-04T04:04:21.748Z,506.00
2023-05-04T04:05:21.725Z,500.00
2023-05-04T04:06:21.700Z,509.00
2023-05-04T04:07:21.796Z,501.00
2023-05-04T04:08:21.661Z,504.00
2023-05-04T04:09:21.732Z,509.00
2023-05-04T04:10:21.631Z,507.00
2023-05-04T04:11:21.622Z,506.00
2023-05-04T04:12:21.863Z,507.00
2023-05-04T04:13:21.776Z,501.00
2023-05-04T04:14:21.625Z,509.00
2023-05-04T04:15:21.645Z,502.00
2023-05-04T04:16:21.750Z,500.00
2023-05-04T04:17:21.799Z,506.00
2023-05-04T04:18:21.578Z,503.00
2023-05-04T04:19:21.593Z,505.00
2023-05-04T04:20:21.559Z,507.00
2023-05-04T04:21:21.603Z,503.00
2023-05-04T04:22:21.571Z,503.00
2023-05-04T04:23:21.584Z,504.00
2023-05-04T04:24:21.553Z,508.00
2023-05-04T04:25:21.646Z,508.00
2023-05-04T04:26:21.581Z,506.00
2023-05-04T04:27:21.795Z,506.00
2023-05-04T04:28:21.650Z,508.00
2023-05-04T04:29:21.482Z,503.00
2023-05-04T04:30:21.487Z,503.00
2023-05-04T04:31:21.573Z,502.00
2023-05-04T04:32:21.851Z,502.00
2023-05-04T04:33:21.494Z,512.00
2023-05-04T04:34:21.448Z,504.00
2023-05-04T04:35:21.444Z,506.00
2023-05-04T04:36:21.498Z,509.00
2023-05-04T04:37:21.429Z,505.00
2023-05-04T04:38:21.474Z,506.00
2023-05-04T04:39:21.487Z,504.00
2023-05-04T04:40:21.433Z,508.00
2023-05-04T04:41:21.425Z,507.00
2023-05-04T04:42:21.801Z,505.00
2023-05-04T04:43:21.421Z,505.00
2023-05-04T04:44:21.379Z,505.00
2023-05-04T04:45:21.406Z,508.00
2023-05-04T04:46:21.420Z,506.00
2023-05-04T04:47:21.350Z,509.00
2023-05-04T04:48:21.412Z,506.00
2023-05-04T04:49:21.355Z,505.00
2023-05-04T04:50:21.345Z,506.00
2023-05-04T04:51:21.315Z,504.00
2023-05-04T04:52:21.350Z,503.00
2023-05-04T04:53:21.298Z,503.00
2023-05-04T04:54:21.316Z,504.00
2023-05-04T04:55:21.324Z,505.00
2023-05-04T04:56:21.306Z,507.00
2023-05-04T04:57:21.332Z,505.00
2023-05-04T04:58:21.292Z,506.00
2023-05-04T04:59:21.265Z,507.00
2023-05-04T05:00:21.266Z,503.00
2023-05-04T05:01:21.271Z,504.00
2023-05-04T05:02:21.239Z,502.00
2023-05-04T05:03:21.233Z,502.00
2023-05-04T05:04:21.255Z,506.00
2023-05-04T05:05:21.257Z,504.00
2023-05-04T05:06:21.197Z,506.00
2023-05-04T05:07:21.316Z,510.00
2023-05-04T05:08:21.180Z,509.00
2023-05-04T05:09:21.218Z,506.00
2023-05-04T05:10:21.180Z,509.00
2023-05-04T05:11:21.187Z,504.00
2023-05-04T05:12:21.326Z,508.00
2023-05-04T05:13:21.226Z,507.00
2023-05-04T05:14:21.166Z,508.00
2023-05-04T05:15:21.162Z,503.00
2023-05-04T05:16:21.190Z,512.00
2023-05-04T05:17:21.364Z,508.00
2023-05-04T05:18:21.119Z,509.00
2023-05-04T05:19:21.126Z,506.00
2023-05-04T05:20:21.109Z,509.00
2023-05-04T05:21:21.119Z,515.00
2023-05-04T05:22:21.119Z,504.00
2023-05-04T05:23:21.114Z,507.00
2023-05-04T05:24:21.075Z,510.00
2023-05-04T05:25:21.092Z,506.00
2023-05-04T05:26:21.068Z,509.00
2023-05-04T05:27:21.304Z,503.00
2023-05-04T05:28:21.041Z,505.00
2023-05-04T05:29:21.045Z,507.00
2023-05-04T05:30:21.057Z,505.00
2023-05-04T05:31:21.077Z,508.00
2023-05-04T05:32:21.333Z,503.00
2023-05-04T05:33:21.040Z,506.00
2023-05-04T05:34:20.995Z,505.00
2023-05-04T05:35:21.032Z,506.00
2023-05-04T05:36:20.990Z,505.00
2023-05-04T05:37:21.013Z,507.00
2023-05-04T05:38:20.989Z,506.00
2023-05-04T05:39:20.973Z,504.00
2023-05-04T05:40:20.952Z,508.00
2023-05-04T05:41:20.999Z,509.00
2023-05-04T05:42:21.331Z,508.00
2023-05-04T05:43:20.933Z,506.00
2023-05-04T05:44:20.924Z,507.00
2023-05-04T05:45:20.911Z,504.00
2023-05-04T05:46:20.948Z,505.00
2023-05-04T05:47:21.328Z,504.00
2023-05-04T05:48:20.933Z,505.00
2023-05-04T05:49:20.928Z,510.00
2023-05-04T05:50:20.879Z,503.00
2023-05-04T05:51:20.885Z,505.00
2023-05-04T05:52:20.893Z,504.00
2023-05-04T05:53:20.865Z,511.00
2023-05-04T05:54:20.917Z,512.00
2023-05-04T05:55:20.868Z,523.00
2023-05-04T05:56:20.856Z,523.00
2023-05-04T05:57:20.880Z,527.00
2023-05-04T05:58:20.934Z,538.00
2023-05-04T05:59:20.940Z,540.00
2023-05-04T06:00:21.059Z,539.00
2023-05-04T06:01:21.086Z,547.00
2023-05-04T06:02:21.395Z,539.00
2023-05-04T06:03:21.366Z,540.00
2023-05-04T06:04:21.226Z,543.00
2023-05-04T06:05:21.254Z,548.00
2023-05-04T06:06:21.320Z,550.00
2023-05-04T06:07:21.826Z,549.00
2023-05-04T06:08:21.404Z,548.00
2023-05-04T06:09:21.547Z,549.00
2023-05-04T06:10:21.543Z,552.00
2023-05-04T06:11:21.596Z,547.00
2023-05-04T06:12:21.655Z,544.00
2023-05-04T06:13:21.710Z,545.00
2023-05-04T06:14:21.765Z,548.00
2023-05-04T06:15:21.800Z,550.00
2023-05-04T06:16:21.893Z,544.00
2023-05-04T06:17:21.926Z,549.00
2023-05-04T06:18:21.972Z,546.00
2023-05-04T06:19:22.036Z,544.00
2023-05-04T06:20:22.066Z,541.00
2023-05-04T06:21:22.177Z,542.00
2023-05-04T06:22:22.232Z,542.00
2023-05-04T06:23:22.267Z,543.00
2023-05-04T06:24:22.323Z,545.00
2023-05-04T06:25:22.399Z,544.00
2023-05-04T06:26:22.467Z,542.00
2023-05-04T06:27:24.227Z,542.00
2023-05-04T06:28:22.766Z,541.00
2023-05-04T06:29:22.692Z,542.00
2023-05-04T06:30:22.682Z,542.00
2023-05-04T06:31:22.741Z,540.00
2023-05-04T06:32:22.873Z,540.00
2023-05-04T06:33:22.938Z,536.00
2023-05-04T06:34:22.937Z,538.00
2023-05-04T06:35:23.042Z,536.00
2023-05-04T06:36:23.082Z,536.00
2023-05-04T06:37:23.170Z,535.00
2023-05-04T06:38:23.204Z,538.00
2023-05-04T06:39:23.247Z,538.00
2023-05-04T06:40:23.345Z,532.00
2023-05-04T06:41:23.406Z,540.00
2023-05-04T06:42:23.461Z,535.00
2023-05-04T06:43:23.499Z,538.00
2023-05-04T06:44:23.550Z,537.00
2023-05-04T06:45:23.628Z,535.00
2023-05-04T06:46:23.705Z,536.00
2023-05-04T06:47:23.831Z,536.00
2023-05-04T06:48:23.825Z,534.00
2023-05-04T06:49:23.920Z,536.00
2023-05-04T06:50:24.060Z,534.00
2023-05-04T06:51:24.013Z,538.00
2023-05-04T06:52:24.360Z,534.00
2023-05-04T06:53:24.200Z,534.00
2023-05-04T06:54:24.209Z,534.00
2023-05-04T06:55:24.303Z,535.00
2023-05-04T06:56:24.374Z,528.00
2023-05-04T06:57:24.433Z,531.00
2023-05-04T06:58:24.448Z,530.00
2023-05-04T06:59:24.545Z,530.00
2023-05-04T07:00:24.598Z,535.00
2023-05-04T07:01:24.673Z,530.00
2023-05-04T07:02:24.768Z,533.00
2023-05-04T07:03:24.816Z,531.00
2023-05-04T07:04:24.852Z,530.00
2023-05-04T07:05:24.912Z,529.00
2023-05-04T07:06:24.964Z,532.00
2023-05-04T07:07:25.358Z,530.00
2023-05-04T07:08:25.084Z,536.00
2023-05-04T07:09:25.160Z,533.00
2023-05-04T07:10:25.228Z,534.00
2023-05-04T07:11:25.282Z,538.00
2023-05-04T07:12:25.352Z,534.00
2023-05-04T07:13:25.410Z,536.00
2023-05-04T07:14:25.451Z,538.00
2023-05-04T07:15:25.556Z,535.00
2023-05-04T07:16:25.646Z,539.00
2023-05-04T07:17:25.816Z,534.00
2023-05-04T07:18:25.889Z,534.00
2023-05-04T07:19:26.358Z,535.00
2023-05-04T07:20:26.385Z,536.00
2023-05-04T07:21:28.298Z,529.00
2023-05-04T07:22:25.896Z,538.00
2023-05-04T07:23:26.334Z,535.00
2023-05-04T07:24:25.882Z,532.00
2023-05-04T07:25:25.865Z,536.00
2023-05-04T07:26:25.849Z,535.00
2023-05-04T07:27:25.834Z,539.00
2023-05-04T07:28:25.875Z,537.00
2023-05-04T07:29:25.840Z,538.00
2023-05-04T07:30:25.826Z,532.00
2023-05-04T07:31:27.486Z,539.00
2023-05-04T07:32:25.857Z,539.00
2023-05-04T07:33:25.821Z,539.00
2023-05-04T07:34:37.709Z,538.00
2023-05-04T07:35:26.821Z,540.00
2023-05-04T07:36:25.760Z,540.00
2023-05-04T07:37:26.017Z,540.00
2023-05-04T07:38:25.748Z,537.00
2023-05-04T07:39:25.775Z,541.00
2023-05-04T07:40:25.810Z,535.00
2023-05-04T07:41:25.704Z,539.00
2023-05-04T07:42:25.720Z,540.00
2023-05-04T07:43:25.868Z,532.00
2023-05-04T07:44:25.777Z,540.00
2023-05-04T07:45:25.884Z,536.00
2023-05-04T07:46:25.917Z,528.00
2023-05-04T07:47:26.002Z,531.00
2023-05-04T07:48:26.856Z,536.00
2023-05-04T07:49:26.039Z,535.00
2023-05-04T07:50:26.098Z,534.00
2023-05-04T07:51:26.137Z,539.00
2023-05-04T07:52:26.191Z,546.00
2023-05-04T07:53:26.517Z,545.00
2023-05-04T07:54:26.218Z,544.00
2023-05-04T07:55:26.230Z,547.00
2023-05-04T07:56:26.280Z,551.00
2023-05-04T07:57:26.304Z,555.00
2023-05-04T07:58:26.378Z,557.00
2023-05-04T07:59:26.314Z,558.00
2023-05-04T08:00:26.312Z,557.00
2023-05-04T08:01:26.373Z,551.00
2023-05-04T08:02:26.406Z,558.00
2023-05-04T08:03:26.417Z,551.00
2023-05-04T08:04:26.321Z,556.00
2023-05-04T08:05:26.352Z,555.00
2023-05-04T08:06:26.376Z,559.00
2023-05-04T08:07:26.347Z,561.00
2023-05-04T08:08:26.386Z,563.00
2023-05-04T08:09:26.402Z,568.00
2023-05-04T08:10:26.426Z,577.00
2023-05-04T08:11:26.423Z,571.00
2023-05-04T08:12:26.486Z,568.00
2023-05-04T08:13:26.900Z,562.00
2023-05-04T08:14:26.628Z,558.00
2023-05-04T08:15:26.669Z,561.00
2023-05-04T08:16:26.758Z,566.00
2023-05-04T08:17:26.821Z,559.00
2023-05-04T08:18:26.914Z,563.00
2023-05-04T08:19:26.910Z,565.00
2023-05-04T08:20:26.940Z,562.00
2023-05-04T08:21:27.020Z,580.00
2023-05-04T08:22:27.119Z,623.00
2023-05-04T08:23:27.157Z,607.00
2023-05-04T08:24:27.364Z,586.00
2023-05-04T08:25:27.208Z,577.00
2023-05-04T08:26:27.266Z,567.00
2023-05-04T08:27:27.317Z,569.00
2023-05-04T08:28:27.418Z,563.00
2023-05-04T08:29:27.406Z,556.00
2023-05-04T08:30:27.429Z,557.00
2023-05-04T08:31:27.437Z,558.00
2023-05-04T08:32:27.515Z,562.00
2023-05-04T08:33:27.554Z,560.00
2023-05-04T08:34:27.562Z,584.00
2023-05-04T08:35:27.580Z,596.00
2023-05-04T08:36:27.624Z,584.00
2023-05-04T08:37:27.621Z,574.00
2023-05-04T08:38:27.892Z,572.00
2023-05-04T08:39:27.663Z,572.00
2023-05-04T08:40:27.670Z,570.00
2023-05-04T08:41:27.773Z,563.00
2023-05-04T08:42:27.714Z,555.00
2023-05-04T08:43:27.778Z,561.00
2023-05-04T08:44:27.771Z,562.00
2023-05-04T08:45:27.795Z,560.00
2023-05-04T08:46:27.786Z,573.00
2023-05-04T08:47:27.923Z,577.00
2023-05-04T08:48:27.836Z,578.00
2023-05-04T08:49:27.875Z,572.00
2023-05-04T08:50:27.879Z,566.00
2023-05-04T08:51:27.925Z,566.00
2023-05-04T08:52:27.962Z,569.00
2023-05-04T08:53:28.103Z,569.00
2023-05-04T08:54:28.017Z,570.00
2023-05-04T08:55:28.022Z,557.00
2023-05-04T08:56:28.024Z,561.00
2023-05-04T08:57:28.033Z,559.00
2023-05-04T08:58:28.095Z,562.00
2023-05-04T08:59:28.084Z,563.00
2023-05-04T09:00:28.197Z,558.00
2023-05-04T09:01:28.212Z,562.00
2023-05-04T09:02:28.183Z,559.00
2023-05-04T09:03:28.220Z,552.00
2023-05-04T09:04:29.751Z,556.00
2023-05-04T09:05:28.216Z,548.00
2023-05-04T09:06:28.231Z,549.00
2023-05-04T09:07:28.248Z,549.00
2023-05-04T09:08:28.283Z,544.00
2023-05-04T09:09:28.336Z,552.00
2023-05-04T09:10:29.686Z,550.00
2023-05-04T09:11:28.337Z,541.00
2023-05-04T09:12:28.442Z,536.00
2023-05-04T09:13:28.421Z,536.00
2023-05-04T09:14:28.422Z,543.00
2023-05-04T09:15:28.465Z,544.00
2023-05-04T09:16:28.470Z,545.00
2023-05-04T09:17:28.507Z,541.00
2023-05-04T09:18:28.556Z,543.00
2023-05-04T09:19:28.532Z,538.00
2023-05-04T09:20:28.548Z,538.00
2023-05-04T09:21:28.572Z,541.00
2023-05-04T09:22:28.958Z,532.00
2023-05-04T09:23:28.614Z,534.00
2023-05-04T09:24:28.629Z,542.00
2023-05-04T09:25:28.637Z,540.00
2023-05-04T09:26:28.639Z,530.00
2023-05-04T09:27:28.676Z,531.00
2023-05-04T09:28:29.679Z,532.00
2023-05-04T09:29:28.635Z,532.00
2023-05-04T09:30:28.667Z,524.00
2023-05-04T09:31:28.802Z,532.00
2023-05-04T09:32:28.775Z,542.00
2023-05-04T09:33:28.617Z,546.00
2023-05-04T09:34:28.624Z,534.00
2023-05-04T09:35:33.088Z,541.00
2023-05-04T09:36:29.613Z,542.00
2023-05-04T09:37:28.629Z,538.00
2023-05-04T09:38:28.614Z,541.00
2023-05-04T09:39:28.633Z,544.00
2023-05-04T09:40:28.586Z,554.00
2023-05-04T09:41:28.561Z,555.00
2023-05-04T09:42:28.597Z,548.00
2023-05-04T09:43:28.604Z,563.00
2023-05-04T09:44:29.591Z,552.00
2023-05-04T09:45:28.560Z,556.00
2023-05-04T09:46:28.720Z,563.00
2023-05-04T09:47:28.605Z,559.00
2023-05-04T09:48:28.551Z,561.00
2023-05-04T09:49:28.525Z,557.00
2023-05-04T09:50:28.552Z,559.00
2023-05-04T09:51:28.508Z,561.00
2023-05-04T09:52:28.496Z,564.00
2023-05-04T09:53:28.512Z,576.00
2023-05-04T09:54:28.462Z,580.00
2023-05-04T09:55:28.512Z,579.00
2023-05-04T09:56:28.473Z,572.00
2023-05-04T09:57:28.482Z,573.00
2023-05-04T09:58:28.456Z,566.00
2023-05-04T09:59:28.427Z,565.00
2023-05-04T10:00:28.459Z,570.00
2023-05-04T10:01:28.554Z,563.00
2023-05-04T10:02:28.460Z,563.00
2023-05-04T10:03:28.385Z,576.00
2023-05-04T10:04:28.437Z,571.00
2023-05-04T10:05:28.608Z,581.00
2023-05-04T10:06:28.552Z,577.00
2023-05-04T10:07:28.637Z,576.00
2023-05-04T10:08:28.700Z,568.00
2023-05-04T10:09:28.750Z,555.00
2023-05-04T10:10:28.809Z,544.00
2023-05-04T10:11:28.857Z,531.00
2023-05-04T10:12:28.931Z,547.00
2023-05-04T10:13:28.970Z,537.00
2023-05-04T10:14:29.033Z,545.00
2023-05-04T10:15:29.056Z,549.00
2023-05-04T10:16:29.250Z,493.00
2023-05-04T10:17:29.221Z,541.00
2023-05-04T10:18:29.266Z,566.00
2023-05-04T10:19:29.321Z,537.00
2023-05-04T10:20:29.440Z,519.00
2023-05-04T10:21:29.454Z,561.00
2023-05-04T10:22:29.533Z,567.00
2023-05-04T10:23:29.590Z,569.00
2023-05-04T10:24:29.604Z,561.00
2023-05-04T10:25:29.669Z,560.00
2023-05-04T10:26:29.734Z,564.00
2023-05-04T10:27:29.782Z,572.00
2023-05-04T10:28:29.832Z,576.00
2023-05-04T10:29:29.924Z,581.00
2023-05-04T10:30:29.968Z,576.00
2023-05-04T10:31:30.052Z,576.00
2023-05-04T10:32:30.031Z,583.00
2023-05-04T10:33:30.062Z,582.00
2023-05-04T10:34:30.087Z,554.00
2023-05-04T10:35:30.135Z,516.00
2023-05-04T10:36:30.187Z,547.00
2023-05-04T10:37:30.220Z,567.00
2023-05-04T10:38:30.276Z,564.00
2023-05-04T10:39:30.343Z,565.00
2023-05-04T10:40:30.377Z,567.00
2023-05-04T10:41:30.412Z,535.00
2023-05-04T10:42:30.440Z,545.00
2023-05-04T10:43:30.523Z,556.00
2023-05-04T10:44:30.530Z,561.00
2023-05-04T10:45:30.632Z,564.00
2023-05-04T10:46:30.663Z,569.00
2023-05-04T10:47:30.773Z,566.00
2023-05-04T10:48:30.763Z,555.00
2023-05-04T10:49:30.865Z,553.00
2023-05-04T10:50:30.858Z,534.00
2023-05-04T10:51:42.428Z,547.00
2023-05-04T10:52:31.934Z,548.00
2023-05-04T10:53:30.924Z,549.00
2023-05-04T10:54:30.895Z,549.00
2023-05-04T10:55:30.912Z,548.00
2023-05-04T10:56:30.913Z,545.00
2023-05-04T10:57:30.896Z,543.00
2023-05-04T10:58:30.934Z,540.00
2023-05-04T10:59:30.887Z,536.00
2023-05-04T11:00:30.884Z,533.00
2023-05-04T11:01:30.887Z,534.00
2023-05-04T11:02:33.159Z,529.00
2023-05-04T11:03:31.304Z,531.00
2023-05-04T11:04:31.043Z,526.00
2023-05-04T11:05:31.061Z,525.00
2023-05-04T11:06:31.024Z,520.00
2023-05-04T11:07:31.054Z,509.00
2023-05-04T11:08:31.057Z,514.00
2023-05-04T11:09:31.062Z,517.00
2023-05-04T11:10:31.026Z,517.00
2023-05-04T11:11:31.054Z,516.00
2023-05-04T11:12:31.157Z,512.00
2023-05-04T11:13:31.108Z,512.00
2023-05-04T11:14:31.458Z,510.00
2023-05-04T11:15:31.090Z,507.00
2023-05-04T11:16:31.126Z,504.00
2023-05-04T11:17:31.113Z,504.00
2023-05-04T11:18:31.182Z,500.00
2023-05-04T11:19:31.120Z,504.00
2023-05-04T11:20:31.137Z,501.00
2023-05-04T11:21:31.150Z,506.00
2023-05-04T11:22:31.162Z,503.00
2023-05-04T11:23:31.153Z,501.00
2023-05-04T11:24:31.178Z,506.00
2023-05-04T11:25:31.234Z,507.00
2023-05-04T11:26:31.228Z,507.00
2023-05-04T11:27:31.255Z,508.00
2023-05-04T11:28:31.280Z,507.00
2023-05-04T11:29:31.306Z,503.00
2023-05-04T11:30:31.328Z,505.00
2023-05-04T11:31:31.449Z,505.00
2023-05-04T11:32:31.424Z,505.00
2023-05-04T11:33:31.430Z,504.00
2023-05-04T11:34:31.446Z,504.00
2023-05-04T11:35:31.457Z,493.00
2023-05-04T11:36:31.515Z,512.00
2023-05-04T11:37:31.523Z,516.00
2023-05-04T11:38:31.535Z,516.00
2023-05-04T11:39:31.975Z,520.00
2023-05-04T11:40:31.526Z,522.00
2023-05-04T11:41:31.601Z,519.00
2023-05-04T11:42:31.599Z,516.00
2023-05-04T11:43:31.609Z,516.00
2023-05-04T11:44:31.632Z,520.00
2023-05-04T11:45:31.645Z,512.00
2023-05-04T11:46:31.729Z,512.00
2023-05-04T11:47:31.738Z,516.00
2023-05-04T11:48:31.682Z,513.00
2023-05-04T11:49:31.722Z,517.00
2023-05-04T11:50:31.815Z,511.00
2023-05-04T11:51:31.770Z,508.00
2023-05-04T11:52:31.828Z,514.00
2023-05-04T11:53:31.829Z,506.00
2023-05-04T11:54:31.957Z,510.00
2023-05-04T11:55:31.889Z,512.00
2023-05-04T11:56:31.889Z,506.00
2023-05-04T11:57:31.960Z,508.00
2023-05-04T11:58:31.971Z,508.00
2023-05-04T11:59:32.454Z,509.00
2023-05-04T12:00:32.033Z,506.00
2023-05-04T12:01:32.036Z,504.00
2023-05-04T12:02:32.205Z,505.00
2023-05-04T12:03:43.978Z,504.00
2023-05-04T12:04:33.097Z,504.00
2023-05-04T12:05:32.154Z,504.00
2023-05-04T12:06:32.110Z,503.00
2023-05-04T12:07:32.081Z,506.00
2023-05-04T12:08:32.086Z,501.00
2023-05-04T12:09:32.099Z,500.00
2023-05-04T12:10:32.082Z,502.00
2023-05-04T12:11:32.046Z,507.00
2023-05-04T12:12:33.461Z,504.00
2023-05-04T12:13:32.086Z,510.00
2023-05-04T12:14:32.056Z,508.00
2023-05-04T12:15:32.044Z,506.00
2023-05-04T12:16:32.112Z,507.00
2023-05-04T12:17:32.056Z,505.00
2023-05-04T12:18:32.037Z,500.00
2023-05-04T12:19:32.090Z,508.00
2023-05-04T12:20:32.126Z,511.00
2023-05-04T12:21:32.123Z,510.00
2023-05-04T12:22:32.170Z,501.00
2023-05-04T12:23:32.198Z,504.00
2023-05-04T12:24:32.546Z,501.00
2023-05-04T12:25:32.262Z,501.00
2023-05-04T12:26:32.328Z,503.00
2023-05-04T12:27:32.383Z,500.00
2023-05-04T12:28:32.376Z,507.00